createdAt,value
2018-12-08T00:00:41.522Z,97514.09
2018-12-08T00:03:09.029Z,97513.36
2018-12-08T00:05:36.497Z,97538.28
2018-12-08T00:08:04.018Z,97533.53
2018-12-08T00:10:31.424Z,97533.95
2018-12-08T00:12:58.824Z,97545.47
2018-12-08T00:15:26.228Z,97543.29
2018-12-08T00:17:53.632Z,97540.83
2018-12-08T00:20:21.038Z,97541.42
2018-12-08T00:22:48.617Z,97540.94
2018-12-08T00:25:16.037Z,97541.56
2018-12-08T00:27:43.444Z,97553.23
2018-12-08T00:30:23.495Z,97548.50
2018-12-08T00:32:50.966Z,97548.33
2018-12-08T00:35:18.370Z,97557.89
2018-12-08T00:37:45.884Z,97567.08
2018-12-08T00:40:13.301Z,97568.96
2018-12-08T00:42:40.708Z,97555.39
2018-12-08T00:45:08.132Z,97532.88
2018-12-08T00:47:36.423Z,97533.62
2018-12-08T00:50:04.764Z,97532.80
2018-12-08T00:52:32.159Z,97552.28
2018-12-08T00:55:00.322Z,97547.58
2018-12-08T00:57:27.754Z,97551.48
2018-12-08T00:59:55.289Z,97549.30
2018-12-08T01:02:22.751Z,97536.23
2018-12-08T01:04:50.208Z,97527.90
2018-12-08T01:07:17.631Z,97519.92
2018-12-08T01:09:45.067Z,97521.88
2018-12-08T01:12:12.571Z,97529.47
2018-12-08T01:14:39.911Z,97523.70
2018-12-08T01:17:07.319Z,97526.59
2018-12-08T01:19:34.781Z,97527.62
2018-12-08T01:22:02.188Z,97521.51
2018-12-08T01:24:29.612Z,97527.33
2018-12-08T01:26:57.037Z,97528.15
2018-12-08T01:29:24.443Z,97522.84
2018-12-08T01:31:52.013Z,97536.77
2018-12-08T01:34:19.415Z,97547.01
2018-12-08T01:36:46.934Z,97534.11
2018-12-08T01:39:14.532Z,97548.95
2018-12-08T01:41:41.987Z,97547.11
2018-12-08T01:44:10.320Z,97534.56
2018-12-08T01:46:37.707Z,97534.09
2018-12-08T01:49:05.138Z,97533.94
2018-12-08T01:51:32.534Z,97539.91
2018-12-08T01:53:59.977Z,97540.32
2018-12-08T01:56:27.520Z,97537.45
2018-12-08T01:58:54.925Z,97548.31
2018-12-08T02:01:22.333Z,97535.89
2018-12-08T02:03:49.731Z,97553.63
2018-12-08T02:06:17.134Z,97551.23
2018-12-08T02:08:44.542Z,97559.48
2018-12-08T02:11:13.056Z,97558.03
2018-12-08T02:13:40.455Z,97560.12
2018-12-08T02:16:07.871Z,97555.78
2018-12-08T02:18:35.672Z,97567.50
2018-12-08T02:21:03.074Z,97582.98
2018-12-08T02:23:30.683Z,97591.16
2018-12-08T02:25:58.090Z,97589.85
2018-12-08T02:28:25.492Z,97587.70
2018-12-08T02:30:52.892Z,97589.84
2018-12-08T02:33:20.854Z,97601.50
2018-12-08T02:35:48.260Z,97600.20
2018-12-08T02:38:15.673Z,97598.81
2018-12-08T02:40:43.543Z,97587.00
2018-12-08T02:43:10.947Z,97595.95
2018-12-08T02:45:38.372Z,97614.00
2018-12-08T02:48:05.906Z,97608.63
2018-12-08T02:50:33.798Z,97603.49
2018-12-08T02:53:01.183Z,97611.73
2018-12-08T02:55:28.639Z,97614.25
2018-12-08T02:57:56.057Z,97617.52
2018-12-08T03:00:23.450Z,97620.11
2018-12-08T03:02:50.878Z,97618.14
2018-12-08T03:05:18.290Z,97609.70
2018-12-08T03:07:45.696Z,97617.06
2018-12-08T03:10:13.939Z,97621.86
2018-12-08T03:12:41.447Z,97632.41
2018-12-08T03:15:08.855Z,97628.54
2018-12-08T03:17:36.288Z,97634.00
2018-12-08T03:20:03.820Z,97645.35
2018-12-08T03:22:31.553Z,97631.86
2018-12-08T03:24:58.938Z,97636.47
2018-12-08T03:27:26.501Z,97636.18
2018-12-08T03:29:53.978Z,97630.42
2018-12-08T03:32:21.383Z,97620.78
2018-12-08T03:34:48.821Z,97620.97
2018-12-08T03:37:16.215Z,97625.58
2018-12-08T03:39:43.858Z,97604.22
2018-12-08T03:42:11.298Z,97598.36
2018-12-08T03:44:38.710Z,97609.38
2018-12-08T03:47:07.093Z,97618.45
2018-12-08T03:49:34.606Z,97628.09
2018-12-08T03:52:01.969Z,97634.33
2018-12-08T03:54:29.946Z,97636.70
2018-12-08T03:56:57.339Z,97634.75
2018-12-08T03:59:24.932Z,97633.91
2018-12-08T04:01:52.365Z,97623.37
2018-12-08T04:04:19.765Z,97622.62
2018-12-08T04:06:47.165Z,97624.83
2018-12-08T04:09:14.630Z,97629.48
2018-12-08T04:11:42.004Z,97630.00
2018-12-08T04:14:09.522Z,97625.91
2018-12-08T04:16:36.947Z,97624.58
2018-12-08T04:19:04.380Z,97598.75
2018-12-08T04:21:31.809Z,97587.64
2018-12-08T04:23:59.247Z,97584.14
2018-12-08T04:26:26.675Z,97576.75
2018-12-08T04:28:54.075Z,97576.52
2018-12-08T04:31:22.956Z,97575.73
2018-12-08T04:33:52.786Z,97573.68
2018-12-08T04:36:20.431Z,97579.03
2018-12-08T04:38:49.011Z,97577.81
2018-12-08T04:41:17.304Z,97585.50
2018-12-08T04:43:45.124Z,97579.44
2018-12-08T04:46:12.704Z,97591.22
2018-12-08T04:48:40.303Z,97597.02
2018-12-08T04:51:12.690Z,97602.33
2018-12-08T04:53:40.205Z,97598.64
2018-12-08T04:56:08.923Z,97603.16
2018-12-08T04:58:36.685Z,97606.59
2018-12-08T05:01:05.315Z,97603.98
2018-12-08T05:03:33.216Z,97616.02
2018-12-08T05:06:01.664Z,97616.34
2018-12-08T05:08:33.518Z,97619.48
2018-12-08T05:11:02.320Z,97611.42
2018-12-08T05:13:29.739Z,97617.91
2018-12-08T05:15:57.151Z,97628.55
2018-12-08T05:18:24.550Z,97624.79
2018-12-08T05:20:51.944Z,97620.45
2018-12-08T05:23:19.405Z,97622.64
2018-12-08T05:25:46.805Z,97628.31
2018-12-08T05:28:14.253Z,97634.38
2018-12-08T05:30:41.694Z,97636.33
2018-12-08T05:33:09.125Z,97627.02
2018-12-08T05:35:37.138Z,97633.94
2018-12-08T05:38:04.611Z,97623.00
2018-12-08T05:40:32.064Z,97638.30
2018-12-08T05:42:59.490Z,97644.63
2018-12-08T05:45:26.997Z,97648.36
2018-12-08T05:47:55.081Z,97654.78
2018-12-08T05:50:22.538Z,97668.05
2018-12-08T05:52:49.951Z,97676.66
2018-12-08T05:55:17.377Z,97689.00
2018-12-08T05:57:44.774Z,97692.86
2018-12-08T06:00:12.179Z,97697.35
2018-12-08T06:02:39.590Z,97686.69
2018-12-08T06:05:07.077Z,97682.16
2018-12-08T06:07:34.482Z,97681.31
2018-12-08T06:10:01.904Z,97680.16
2018-12-08T06:12:29.312Z,97679.83
2018-12-08T06:14:56.757Z,97671.39
2018-12-08T06:17:24.214Z,97671.05
2018-12-08T06:19:51.755Z,97665.77
2018-12-08T06:22:19.222Z,97666.57
2018-12-08T06:24:46.663Z,97675.81
2018-12-08T06:27:14.088Z,97671.57
2018-12-08T06:29:41.521Z,97673.88
2018-12-08T06:32:09.086Z,97684.22
2018-12-08T06:34:36.518Z,97681.61
2018-12-08T06:37:03.940Z,97680.81
2018-12-08T06:39:31.331Z,97673.30
2018-12-08T06:41:58.748Z,97682.83
2018-12-08T06:44:26.147Z,97670.35
2018-12-08T06:46:53.575Z,97661.78
2018-12-08T06:49:20.985Z,97666.13
2018-12-08T06:51:48.455Z,97668.22
2018-12-08T06:54:15.858Z,97668.64
2018-12-08T06:56:43.286Z,97676.70
2018-12-08T06:59:10.692Z,97680.76
2018-12-08T07:01:38.168Z,97679.25
2018-12-08T07:04:05.722Z,97678.60
2018-12-08T07:06:33.625Z,97686.84
2018-12-08T07:09:01.043Z,97683.48
2018-12-08T07:11:28.461Z,97688.23
2018-12-08T07:13:55.903Z,97691.48
2018-12-08T07:16:23.334Z,97691.26
2018-12-08T07:18:50.827Z,97698.53
2018-12-08T07:21:18.253Z,97693.16
2018-12-08T07:23:45.655Z,97701.24
2018-12-08T07:26:13.245Z,97710.02
2018-12-08T07:28:40.703Z,97714.87
2018-12-08T07:31:08.317Z,97712.91
2018-12-08T07:33:35.756Z,97705.81
2018-12-08T07:36:03.192Z,97704.15
2018-12-08T07:38:31.497Z,97711.33
2018-12-08T07:40:58.899Z,97710.03
2018-12-08T07:43:27.565Z,97712.38
2018-12-08T07:45:55.811Z,97712.71
2018-12-08T07:48:23.212Z,97711.08
2018-12-08T07:50:50.666Z,97714.73
2018-12-08T07:53:18.066Z,97716.70
2018-12-08T07:55:45.541Z,97716.94
2018-12-08T07:58:12.967Z,97705.41
2018-12-08T08:00:40.399Z,97709.32
2018-12-08T08:03:07.825Z,97698.72
2018-12-08T08:05:35.237Z,97706.45
2018-12-08T08:08:02.654Z,97709.03
2018-12-08T08:10:30.060Z,97707.17
2018-12-08T08:12:57.476Z,97711.00
2018-12-08T08:15:25.155Z,97712.41
2018-12-08T08:17:52.571Z,97687.72
2018-12-08T08:20:19.976Z,97667.28
2018-12-08T08:22:47.387Z,97675.34
2018-12-08T08:25:14.861Z,97691.87
2018-12-08T08:27:42.341Z,97702.42
2018-12-08T08:30:10.110Z,97707.04
2018-12-08T08:32:37.588Z,97727.63
2018-12-08T08:35:05.103Z,97715.92
2018-12-08T08:37:32.837Z,97713.80
2018-12-08T08:40:00.304Z,97707.36
2018-12-08T08:42:27.718Z,97721.52
2018-12-08T08:44:55.113Z,97731.63
2018-12-08T08:47:22.515Z,97721.89
2018-12-08T08:49:50.259Z,97728.73
2018-12-08T08:52:17.658Z,97708.64
2018-12-08T08:54:45.127Z,97711.81
2018-12-08T08:57:12.567Z,97715.04
2018-12-08T08:59:40.094Z,97705.27
2018-12-08T09:02:07.502Z,97702.25
2018-12-08T09:04:34.942Z,97702.54
2018-12-08T09:07:02.563Z,97689.09
2018-12-08T09:09:29.970Z,97704.73
2018-12-08T09:11:58.111Z,97701.98
2018-12-08T09:14:25.750Z,97709.43
2018-12-08T09:16:53.341Z,97707.57
2018-12-08T09:19:20.759Z,97703.25
2018-12-08T09:21:48.195Z,97695.77
2018-12-08T09:24:15.604Z,97697.09
2018-12-08T09:26:43.165Z,97691.07
2018-12-08T09:29:10.601Z,97688.85
2018-12-08T09:31:38.020Z,97695.28
2018-12-08T09:34:05.443Z,97678.19
2018-12-08T09:36:32.911Z,97691.80
2018-12-08T09:39:00.366Z,97709.95
2018-12-08T09:41:27.843Z,97696.78
2018-12-08T09:43:55.347Z,97705.26
2018-12-08T09:46:22.830Z,97689.86
2018-12-08T09:48:50.235Z,97696.11
2018-12-08T09:51:17.871Z,97695.45
2018-12-08T09:53:45.299Z,97709.27
2018-12-08T09:56:12.761Z,97703.20
2018-12-08T09:58:40.206Z,97707.78
2018-12-08T10:01:07.658Z,97695.59
2018-12-08T10:03:35.059Z,97697.66
2018-12-08T10:06:02.484Z,97699.35
2018-12-08T10:08:29.930Z,97693.84
2018-12-08T10:10:57.351Z,97688.02
2018-12-08T10:13:24.799Z,97699.84
2018-12-08T10:15:52.220Z,97700.33
2018-12-08T10:18:19.607Z,97711.31
2018-12-08T10:20:47.138Z,97713.82
2018-12-08T10:23:14.551Z,97710.68
2018-12-08T10:25:42.283Z,97686.02
2018-12-08T10:28:09.752Z,97694.95
2018-12-08T10:30:37.235Z,97697.05
2018-12-08T10:33:04.803Z,97702.69
2018-12-08T10:35:32.223Z,97694.28
2018-12-08T10:37:59.749Z,97684.24
2018-12-08T10:40:27.183Z,97689.25
2018-12-08T10:42:54.637Z,97694.39
2018-12-08T10:45:22.051Z,97691.07
2018-12-08T10:47:49.770Z,97682.70
2018-12-08T10:50:17.456Z,97696.44
2018-12-08T10:52:45.010Z,97690.02
2018-12-08T10:55:12.435Z,97700.95
2018-12-08T10:57:39.835Z,97698.45
2018-12-08T11:00:07.886Z,97705.16
2018-12-08T11:02:35.424Z,97714.25
2018-12-08T11:05:02.843Z,97704.50
2018-12-08T11:07:30.261Z,97694.91
2018-12-08T11:09:58.601Z,97687.07
2018-12-08T11:12:26.026Z,97676.19
2018-12-08T11:15:00.600Z,97676.25
2018-12-08T11:17:22.445Z,97684.28
2018-12-08T11:19:50.623Z,97683.39
2018-12-08T11:22:18.062Z,97696.50
2018-12-08T11:24:45.518Z,97702.77
2018-12-08T11:27:13.066Z,97713.14
2018-12-08T11:29:40.933Z,97715.66
2018-12-08T11:32:08.353Z,97713.70
2018-12-08T11:34:36.280Z,97702.25
2018-12-08T11:37:03.746Z,97701.75
2018-12-08T11:39:32.283Z,97682.66
2018-12-08T11:42:01.122Z,97675.77
2018-12-08T11:44:28.979Z,97671.97
2018-12-08T11:46:56.637Z,97694.52
2018-12-08T11:49:24.119Z,97682.42
2018-12-08T11:51:51.552Z,97683.72
2018-12-08T11:54:19.849Z,97673.03
2018-12-08T11:56:47.275Z,97665.78
2018-12-08T11:59:14.754Z,97668.27
2018-12-08T12:01:42.355Z,97666.42
2018-12-08T12:04:10.163Z,97659.30
2018-12-08T12:06:37.743Z,97653.67
2018-12-08T12:09:05.389Z,97658.38
2018-12-08T12:11:32.783Z,97666.23
2018-12-08T12:14:00.605Z,97672.70
2018-12-08T12:16:28.170Z,97672.43
2018-12-08T12:18:55.568Z,97680.53
2018-12-08T12:21:23.076Z,97687.50
2018-12-08T12:23:50.795Z,97678.85
2018-12-08T12:26:18.339Z,97673.44
2018-12-08T12:28:45.848Z,97673.55
2018-12-08T12:31:14.060Z,97672.17
2018-12-08T12:33:41.610Z,97659.51
2018-12-08T12:36:09.936Z,97655.53
2018-12-08T12:38:38.175Z,97647.43
2018-12-08T12:41:05.631Z,97639.11
2018-12-08T12:43:33.346Z,97635.73
2018-12-08T12:46:00.775Z,97638.34
2018-12-08T12:48:28.239Z,97641.80
2018-12-08T12:50:55.878Z,97642.36
2018-12-08T12:53:23.293Z,97641.79
2018-12-08T12:55:50.909Z,97637.04
2018-12-08T12:58:18.305Z,97643.78
2018-12-08T13:00:46.193Z,97639.45
2018-12-08T13:03:14.312Z,97628.56
2018-12-08T13:05:41.716Z,97642.42
2018-12-08T13:08:09.451Z,97650.86
2018-12-08T13:10:36.996Z,97634.67
2018-12-08T13:13:04.703Z,97654.18
2018-12-08T13:15:32.117Z,97656.47
2018-12-08T13:17:59.520Z,97628.83
2018-12-08T13:20:27.039Z,97624.75
2018-12-08T13:22:54.706Z,97621.98
2018-12-08T13:25:22.150Z,97622.52
2018-12-08T13:27:49.619Z,97625.28
2018-12-08T13:30:18.107Z,97620.88
2018-12-08T13:32:45.599Z,97613.21
2018-12-08T13:35:18.751Z,97618.06
2018-12-08T13:37:46.512Z,97623.70
2018-12-08T13:40:13.916Z,97617.76
2018-12-08T13:42:41.419Z,97626.52
2018-12-08T13:45:17.045Z,97626.12
2018-12-08T13:47:44.494Z,97607.84
2018-12-08T13:50:11.910Z,97616.66
2018-12-08T13:52:39.461Z,97626.11
2018-12-08T13:55:07.637Z,97624.17
2018-12-08T13:57:35.291Z,97623.21
2018-12-08T14:00:02.897Z,97618.30
2018-12-08T14:02:31.438Z,97626.74
2018-12-08T14:04:58.923Z,97625.86
2018-12-08T14:07:26.484Z,97622.00
2018-12-08T14:09:56.591Z,97621.84
2018-12-08T14:12:24.129Z,97615.64
2018-12-08T14:14:51.935Z,97627.19
2018-12-08T14:17:19.338Z,97607.20
2018-12-08T14:19:46.840Z,97598.31
2018-12-08T14:22:16.178Z,97610.14
2018-12-08T14:24:43.786Z,97606.95
2018-12-08T14:27:11.219Z,97602.83
2018-12-08T14:29:38.680Z,97604.96
2018-12-08T14:32:06.662Z,97608.83
2018-12-08T14:34:34.288Z,97620.22
2018-12-08T14:37:01.925Z,97610.96
2018-12-08T14:39:29.804Z,97625.54
2018-12-08T14:41:58.231Z,97630.40
2018-12-08T14:44:27.162Z,97632.23
2018-12-08T14:46:54.628Z,97645.33
2018-12-08T14:49:22.081Z,97639.48
2018-12-08T14:51:49.943Z,97642.52
2018-12-08T14:54:17.682Z,97637.81
2018-12-08T14:56:45.154Z,97652.75
2018-12-08T14:59:12.776Z,97646.64
2018-12-08T15:01:40.292Z,97644.43
2018-12-08T15:04:07.785Z,97649.24
2018-12-08T15:06:37.088Z,97648.48
2018-12-08T15:09:04.677Z,97672.48
2018-12-08T15:11:32.140Z,97661.06
2018-12-08T15:14:00.302Z,97638.87
2018-12-08T15:16:32.105Z,97625.19
2018-12-08T15:18:59.693Z,97634.84
2018-12-08T15:21:27.167Z,97637.41
2018-12-08T15:23:54.618Z,97638.77
2018-12-08T15:26:22.243Z,97631.03
2018-12-08T15:28:50.261Z,97631.20
2018-12-08T15:31:17.703Z,97635.17
2018-12-08T15:33:45.674Z,97634.55
2018-12-08T15:36:13.099Z,97619.95
2018-12-08T15:38:40.956Z,97611.59
2018-12-08T15:41:09.270Z,97616.40
2018-12-08T15:43:38.185Z,97607.27
2018-12-08T15:46:10.630Z,97594.27
2018-12-08T15:48:38.142Z,97594.47
2018-12-08T15:51:05.557Z,97596.60
2018-12-08T15:53:32.982Z,97580.73
2018-12-08T15:56:00.588Z,97576.80
2018-12-08T15:58:28.276Z,97579.11
2018-12-08T16:00:55.752Z,97570.37
2018-12-08T16:03:23.738Z,97573.34
2018-12-08T16:05:51.504Z,97587.03
2018-12-08T16:08:19.209Z,97594.50
2018-12-08T16:10:46.668Z,97587.39
2018-12-08T16:13:14.616Z,97588.06
2018-12-08T16:15:42.063Z,97585.50
2018-12-08T16:18:09.576Z,97589.20
2018-12-08T16:20:36.982Z,97581.11
2018-12-08T16:23:04.425Z,97560.13
2018-12-08T16:25:32.497Z,97562.63
2018-12-08T16:27:59.886Z,97573.20
2018-12-08T16:30:27.323Z,97571.99
2018-12-08T16:32:54.726Z,97585.20
2018-12-08T16:35:22.642Z,97577.31
2018-12-08T16:37:56.973Z,97582.44
2018-12-08T16:40:17.630Z,97580.66
2018-12-08T16:42:45.311Z,97576.39
2018-12-08T16:45:12.719Z,97575.61
2018-12-08T16:47:40.796Z,97574.14
2018-12-08T16:50:09.546Z,97562.50
2018-12-08T16:52:37.829Z,97567.16
2018-12-08T16:55:06.225Z,97558.58
2018-12-08T16:57:33.713Z,97547.09
2018-12-08T17:00:02.046Z,97567.20
2018-12-08T17:02:29.444Z,97565.74
2018-12-08T17:04:57.046Z,97553.89
2018-12-08T17:07:24.749Z,97543.95
2018-12-08T17:09:52.452Z,97541.98
2018-12-08T17:12:19.978Z,97538.59
2018-12-08T17:14:47.887Z,97529.87
2018-12-08T17:17:15.635Z,97536.02
2018-12-08T17:19:43.366Z,97538.59
2018-12-08T17:22:10.837Z,97538.08
2018-12-08T17:24:38.476Z,97517.80
2018-12-08T17:27:06.446Z,97525.02
2018-12-08T17:29:33.921Z,97530.02
2018-12-08T17:32:01.359Z,97533.83
2018-12-08T17:34:29.031Z,97525.05
2018-12-08T17:36:56.707Z,97530.79
2018-12-08T17:39:24.435Z,97516.75
2018-12-08T17:41:52.056Z,97525.13
2018-12-08T17:44:20.369Z,97522.83
2018-12-08T17:49:21.869Z,97523.94
2018-12-08T17:51:51.327Z,97524.68
2018-12-08T17:54:19.579Z,97524.87
2018-12-08T17:56:47.749Z,97509.74
2018-12-08T17:59:15.247Z,97515.39
2018-12-08T18:01:42.675Z,97518.35
2018-12-08T18:04:10.484Z,97513.50
2018-12-08T18:06:38.446Z,97510.00
2018-12-08T18:09:06.405Z,97509.89
2018-12-08T18:11:34.108Z,97506.97
2018-12-08T18:14:01.729Z,97506.23
2018-12-08T18:16:30.274Z,97501.75
2018-12-08T18:18:57.888Z,97489.19
2018-12-08T18:21:25.576Z,97482.81
2018-12-08T18:23:53.661Z,97475.82
2018-12-08T18:26:23.083Z,97477.69
2018-12-08T18:28:51.588Z,97462.26
2018-12-08T18:31:19.089Z,97461.33
2018-12-08T18:33:46.770Z,97452.36
2018-12-08T18:36:16.008Z,97471.09
2018-12-08T18:38:43.905Z,97462.81
2018-12-08T18:41:11.351Z,97473.58
2018-12-08T18:43:40.236Z,97449.39
2018-12-08T18:46:07.814Z,97458.80
2018-12-08T18:48:35.253Z,97465.92
2018-12-08T18:51:02.857Z,97452.99
2018-12-08T18:53:30.445Z,97448.50
2018-12-08T18:55:58.121Z,97445.16
2018-12-08T18:58:25.676Z,97444.84
2018-12-08T19:00:53.171Z,97449.33
2018-12-08T19:03:21.573Z,97437.28
2018-12-08T19:05:49.601Z,97435.66
2018-12-08T19:08:16.994Z,97448.70
2018-12-08T19:10:45.147Z,97450.16
2018-12-08T19:13:14.736Z,97438.67
2018-12-08T19:15:42.288Z,97429.98
2018-12-08T19:18:09.735Z,97441.05
2018-12-08T19:20:37.817Z,97433.54
2018-12-08T19:23:05.411Z,97419.58
2018-12-08T19:25:32.891Z,97419.56
2018-12-08T19:28:00.493Z,97423.59
2018-12-08T19:30:27.933Z,97425.56
2018-12-08T19:32:55.459Z,97431.02
2018-12-08T19:35:22.967Z,97430.42
2018-12-08T19:37:50.510Z,97433.05
2018-12-08T19:40:18.004Z,97417.04
2018-12-08T19:42:45.421Z,97429.14
2018-12-08T19:45:13.128Z,97423.72
2018-12-08T19:47:41.047Z,97430.13
2018-12-08T19:50:08.671Z,97423.19
2018-12-08T19:52:36.934Z,97397.10
2018-12-08T19:55:04.338Z,97393.44
2018-12-08T19:57:32.021Z,97386.61
2018-12-08T19:59:59.418Z,97400.29
2018-12-08T20:02:27.523Z,97402.48
2018-12-08T20:04:54.931Z,97399.55
2018-12-08T20:07:22.519Z,97410.41
2018-12-08T20:09:50.070Z,97402.64
2018-12-08T20:12:18.559Z,97399.92
2018-12-08T20:14:45.061Z,97394.76
2018-12-08T20:17:12.473Z,97384.32
2018-12-08T20:19:40.226Z,97384.11
2018-12-08T20:22:08.378Z,97394.39
2018-12-08T20:24:35.843Z,97375.55
2018-12-08T20:27:03.438Z,97373.76
2018-12-08T20:29:31.154Z,97355.28
2018-12-08T20:31:58.980Z,97351.19
2018-12-08T20:34:27.508Z,97342.89
2018-12-08T20:36:55.159Z,97358.48
2018-12-08T20:39:22.691Z,97342.13
2018-12-08T20:41:50.167Z,97346.14
2018-12-08T20:44:17.948Z,97346.44
2018-12-08T20:46:45.337Z,97351.72
2018-12-08T20:49:12.761Z,97335.87
2018-12-08T20:51:40.396Z,97351.88
2018-12-08T20:54:07.770Z,97330.25
2018-12-08T20:56:35.834Z,97325.33
2018-12-08T20:59:03.649Z,97338.45
2018-12-08T21:01:31.167Z,97330.34
2018-12-08T21:03:58.622Z,97317.27
2018-12-08T21:06:26.190Z,97300.79
2018-12-08T21:08:54.639Z,97306.83
2018-12-08T21:11:22.133Z,97312.00
2018-12-08T21:13:49.681Z,97316.83
2018-12-08T21:16:17.623Z,97317.11
2018-12-08T21:18:45.139Z,97303.59
2018-12-08T21:21:12.649Z,97299.52
2018-12-08T21:23:40.160Z,97298.16
2018-12-08T21:26:07.575Z,97309.66
2018-12-08T21:28:35.646Z,97300.59
2018-12-08T21:31:03.833Z,97306.88
2018-12-08T21:33:32.241Z,97307.55
2018-12-08T21:35:59.823Z,97301.38
2018-12-08T21:38:27.958Z,97303.80
2018-12-08T21:40:55.616Z,97302.14
2018-12-08T21:43:23.287Z,97297.45
2018-12-08T21:45:50.712Z,97303.62
2018-12-08T21:48:18.582Z,97282.20
2018-12-08T21:50:45.999Z,97296.66
2018-12-08T21:53:13.397Z,97302.73
2018-12-08T21:55:40.823Z,97294.49
2018-12-08T21:58:08.216Z,97288.00
2018-12-08T22:00:35.678Z,97279.98
2018-12-08T22:03:03.142Z,97284.22
2018-12-08T22:05:30.601Z,97287.30
2018-12-08T22:07:58.029Z,97289.77
2018-12-08T22:10:25.575Z,97285.81
2018-12-08T22:12:53.033Z,97297.19
2018-12-08T22:15:20.493Z,97305.45
2018-12-08T22:17:47.893Z,97306.23
2018-12-08T22:20:15.593Z,97303.72
2018-12-08T22:22:43.081Z,97303.66
2018-12-08T22:25:10.525Z,97293.64
2018-12-08T22:27:37.928Z,97305.75
2018-12-08T22:30:05.429Z,97273.75
2018-12-08T22:32:32.903Z,97283.79
2018-12-08T22:35:00.370Z,97249.75
2018-12-08T22:37:29.102Z,97255.28
2018-12-08T22:39:55.351Z,97248.14
2018-12-08T22:42:23.518Z,97249.69
2018-12-08T22:44:51.002Z,97247.94
2018-12-08T22:47:18.539Z,97250.97
2018-12-08T22:49:46.727Z,97247.72
2018-12-08T22:52:14.241Z,97225.81
2018-12-08T22:54:42.308Z,97244.70
2018-12-08T22:57:09.894Z,97217.86
2018-12-08T22:59:37.286Z,97226.14
2018-12-08T23:02:04.986Z,97223.65
2018-12-08T23:04:32.486Z,97202.83
2018-12-08T23:07:01.027Z,97209.59
2018-12-08T23:09:29.485Z,97191.48
2018-12-08T23:11:56.908Z,97180.16
2018-12-08T23:14:24.328Z,97160.38
2018-12-08T23:16:52.084Z,97163.70
2018-12-08T23:19:19.510Z,97162.08
2018-12-08T23:21:47.732Z,97164.90
2018-12-08T23:24:15.172Z,97155.68
2018-12-08T23:26:42.656Z,97173.59
2018-12-08T23:29:10.486Z,97167.37
2018-12-08T23:31:38.033Z,97143.92
2018-12-08T23:34:05.463Z,97154.45
2018-12-08T23:36:32.950Z,97156.16
2018-12-08T23:39:00.391Z,97158.37
2018-12-08T23:41:27.890Z,97161.12
2018-12-08T23:43:55.287Z,97143.34
2018-12-08T23:46:22.733Z,97139.50
2018-12-08T23:48:50.126Z,97168.13
2018-12-08T23:51:18.589Z,97156.78
2018-12-08T23:53:45.110Z,97144.30
2018-12-08T23:56:12.536Z,97146.94
2018-12-08T23:58:39.951Z,97136.73
